sensor_id;sensor_type;location;lat;lon;timestamp;temperature;humidity
16347;DHT22;8283;48.504;13.734;2023-04-25T00:01:46;12.40;57.90
16347;DHT22;8283;48.504;13.734;2023-04-25T00:04:30;12.40;57.90
16347;DHT22;8283;48.504;13.734;2023-04-25T00:07:17;12.40;57.90
16347;DHT22;8283;48.504;13.734;2023-04-25T00:10:02;12.40;58.00
16347;DHT22;8283;48.504;13.734;2023-04-25T00:12:47;12.40;58.00
16347;DHT22;8283;48.504;13.734;2023-04-25T00:15:32;12.40;58.00
16347;DHT22;8283;48.504;13.734;2023-04-25T00:18:16;12.40;58.10
16347;DHT22;8283;48.504;13.734;2023-04-25T00:21:02;12.40;58.10
16347;DHT22;8283;48.504;13.734;2023-04-25T00:23:46;12.40;58.70
16347;DHT22;8283;48.504;13.734;2023-04-25T00:26:31;12.40;58.20
16347;DHT22;8283;48.504;13.734;2023-04-25T00:29:16;12.40;58.30
16347;DHT22;8283;48.504;13.734;2023-04-25T00:32:01;12.40;58.30
16347;DHT22;8283;48.504;13.734;2023-04-25T00:34:46;12.40;58.50
16347;DHT22;8283;48.504;13.734;2023-04-25T00:37:30;12.40;58.50
16347;DHT22;8283;48.504;13.734;2023-04-25T00:40:14;12.40;58.60
16347;DHT22;8283;48.504;13.734;2023-04-25T00:42:59;12.40;58.60
16347;DHT22;8283;48.504;13.734;2023-04-25T00:45:47;12.40;58.70
16347;DHT22;8283;48.504;13.734;2023-04-25T00:48:31;12.50;59.00
16347;DHT22;8283;48.504;13.734;2023-04-25T00:51:19;12.50;58.80
16347;DHT22;8283;48.504;13.734;2023-04-25T00:54:04;12.50;59.20
16347;DHT22;8283;48.504;13.734;2023-04-25T00:56:49;12.50;58.90
16347;DHT22;8283;48.504;13.734;2023-04-25T00:59:34;12.60;59.00
16347;DHT22;8283;48.504;13.734;2023-04-25T01:02:20;12.50;58.90
16347;DHT22;8283;48.504;13.734;2023-04-25T01:05:04;12.60;59.00
16347;DHT22;8283;48.504;13.734;2023-04-25T01:07:49;12.60;59.00
16347;DHT22;8283;48.504;13.734;2023-04-25T01:10:34;12.60;58.90
16347;DHT22;8283;48.504;13.734;2023-04-25T01:13:18;12.60;59.00
16347;DHT22;8283;48.504;13.734;2023-04-25T01:16:04;12.60;59.00
16347;DHT22;8283;48.504;13.734;2023-04-25T01:18:49;12.60;59.00
16347;DHT22;8283;48.504;13.734;2023-04-25T01:21:35;12.60;59.00
16347;DHT22;8283;48.504;13.734;2023-04-25T01:24:20;12.60;59.00
16347;DHT22;8283;48.504;13.734;2023-04-25T01:27:05;12.60;59.10
16347;DHT22;8283;48.504;13.734;2023-04-25T01:29:50;12.60;59.00
16347;DHT22;8283;48.504;13.734;2023-04-25T01:32:34;12.60;59.00
16347;DHT22;8283;48.504;13.734;2023-04-25T01:35:22;12.60;59.00
16347;DHT22;8283;48.504;13.734;2023-04-25T01:38:12;12.60;59.10
16347;DHT22;8283;48.504;13.734;2023-04-25T01:40:56;12.60;59.10
16347;DHT22;8283;48.504;13.734;2023-04-25T01:43:41;12.60;59.00
16347;DHT22;8283;48.504;13.734;2023-04-25T01:46:25;12.60;58.90
16347;DHT22;8283;48.504;13.734;2023-04-25T01:49:10;12.60;58.90
16347;DHT22;8283;48.504;13.734;2023-04-25T01:51:55;12.60;58.90
16347;DHT22;8283;48.504;13.734;2023-04-25T01:54:40;12.60;59.00
16347;DHT22;8283;48.504;13.734;2023-04-25T01:57:28;12.50;58.80
16347;DHT22;8283;48.504;13.734;2023-04-25T02:00:13;12.50;58.90
16347;DHT22;8283;48.504;13.734;2023-04-25T02:02:58;12.50;58.90
16347;DHT22;8283;48.504;13.734;2023-04-25T02:05:47;12.50;59.60
16347;DHT22;8283;48.504;13.734;2023-04-25T02:08:32;12.50;59.20
16347;DHT22;8283;48.504;13.734;2023-04-25T02:11:16;12.50;59.20
16347;DHT22;8283;48.504;13.734;2023-04-25T02:14:09;12.50;59.30
16347;DHT22;8283;48.504;13.734;2023-04-25T02:17:03;12.50;59.30
16347;DHT22;8283;48.504;13.734;2023-04-25T02:19:48;12.50;59.30
16347;DHT22;8283;48.504;13.734;2023-04-25T02:22:33;12.50;59.40
16347;DHT22;8283;48.504;13.734;2023-04-25T02:25:20;12.50;59.20
16347;DHT22;8283;48.504;13.734;2023-04-25T02:28:04;12.40;59.10
16347;DHT22;8283;48.504;13.734;2023-04-25T02:30:49;12.40;59.20
16347;DHT22;8283;48.504;13.734;2023-04-25T02:33:34;12.40;59.20
16347;DHT22;8283;48.504;13.734;2023-04-25T02:36:18;12.40;59.10
16347;DHT22;8283;48.504;13.734;2023-04-25T02:39:03;12.30;59.10
16347;DHT22;8283;48.504;13.734;2023-04-25T02:41:47;12.40;59.10
16347;DHT22;8283;48.504;13.734;2023-04-25T02:44:31;12.40;59.20
16347;DHT22;8283;48.504;13.734;2023-04-25T02:47:16;12.30;59.30
16347;DHT22;8283;48.504;13.734;2023-04-25T02:50:01;12.30;59.40
16347;DHT22;8283;48.504;13.734;2023-04-25T02:52:46;12.30;59.40
16347;DHT22;8283;48.504;13.734;2023-04-25T02:55:35;12.30;59.30
16347;DHT22;8283;48.504;13.734;2023-04-25T02:58:20;12.30;59.30
16347;DHT22;8283;48.504;13.734;2023-04-25T03:01:07;12.30;59.30
16347;DHT22;8283;48.504;13.734;2023-04-25T03:03:52;12.20;59.30
16347;DHT22;8283;48.504;13.734;2023-04-25T03:06:38;12.20;59.20
16347;DHT22;8283;48.504;13.734;2023-04-25T03:09:23;12.20;59.30
16347;DHT22;8283;48.504;13.734;2023-04-25T03:12:09;12.20;59.30
16347;DHT22;8283;48.504;13.734;2023-04-25T03:14:54;12.20;59.30
16347;DHT22;8283;48.504;13.734;2023-04-25T03:17:39;12.20;59.30
16347;DHT22;8283;48.504;13.734;2023-04-25T03:20:23;12.10;59.30
16347;DHT22;8283;48.504;13.734;2023-04-25T03:23:08;12.10;59.30
16347;DHT22;8283;48.504;13.734;2023-04-25T03:25:53;12.10;59.30
16347;DHT22;8283;48.504;13.734;2023-04-25T03:28:38;12.10;59.40
16347;DHT22;8283;48.504;13.734;2023-04-25T03:31:24;12.10;59.60
16347;DHT22;8283;48.504;13.734;2023-04-25T03:34:09;12.10;59.60
16347;DHT22;8283;48.504;13.734;2023-04-25T03:36:54;12.10;59.60
16347;DHT22;8283;48.504;13.734;2023-04-25T03:39:38;12.00;59.60
16347;DHT22;8283;48.504;13.734;2023-04-25T03:42:24;12.10;59.70
16347;DHT22;8283;48.504;13.734;2023-04-25T03:45:09;12.00;59.70
16347;DHT22;8283;48.504;13.734;2023-04-25T03:47:54;12.10;59.80
16347;DHT22;8283;48.504;13.734;2023-04-25T03:50:39;12.10;59.90
16347;DHT22;8283;48.504;13.734;2023-04-25T03:53:24;12.10;59.90
16347;DHT22;8283;48.504;13.734;2023-04-25T03:56:43;12.00;59.90
16347;DHT22;8283;48.504;13.734;2023-04-25T03:59:36;12.10;59.90
16347;DHT22;8283;48.504;13.734;2023-04-25T04:02:22;12.10;59.90
16347;DHT22;8283;48.504;13.734;2023-04-25T04:05:07;12.10;60.10
16347;DHT22;8283;48.504;13.734;2023-04-25T04:07:55;12.10;60.10
16347;DHT22;8283;48.504;13.734;2023-04-25T04:10:40;12.10;60.10
16347;DHT22;8283;48.504;13.734;2023-04-25T04:13:26;12.10;60.20
16347;DHT22;8283;48.504;13.734;2023-04-25T04:16:10;12.20;60.40
16347;DHT22;8283;48.504;13.734;2023-04-25T04:18:55;12.20;60.40
16347;DHT22;8283;48.504;13.734;2023-04-25T04:22:06;12.20;60.40
16347;DHT22;8283;48.504;13.734;2023-04-25T04:24:59;12.20;62.00
16347;DHT22;8283;48.504;13.734;2023-04-25T04:28:22;12.30;60.40
16347;DHT22;8283;48.504;13.734;2023-04-25T04:31:27;12.30;60.30
16347;DHT22;8283;48.504;13.734;2023-04-25T04:34:11;12.30;60.40
16347;DHT22;8283;48.504;13.734;2023-04-25T04:36:57;12.30;60.40
16347;DHT22;8283;48.504;13.734;2023-04-25T04:39:42;12.40;60.40
16347;DHT22;8283;48.504;13.734;2023-04-25T04:42:36;12.40;60.50
16347;DHT22;8283;48.504;13.734;2023-04-25T04:45:31;12.40;60.50
16347;DHT22;8283;48.504;13.734;2023-04-25T04:48:39;12.40;60.80
16347;DHT22;8283;48.504;13.734;2023-04-25T04:51:47;12.40;60.80
16347;DHT22;8283;48.504;13.734;2023-04-25T04:55:01;12.50;60.60
16347;DHT22;8283;48.504;13.734;2023-04-25T04:57:56;12.50;60.50
16347;DHT22;8283;48.504;13.734;2023-04-25T05:00:59;12.50;60.50
16347;DHT22;8283;48.504;13.734;2023-04-25T05:04:11;12.50;60.60
16347;DHT22;8283;48.504;13.734;2023-04-25T05:07:04;12.50;60.80
16347;DHT22;8283;48.504;13.734;2023-04-25T05:10:18;12.60;60.90
16347;DHT22;8283;48.504;13.734;2023-04-25T05:13:22;12.60;60.80
16347;DHT22;8283;48.504;13.734;2023-04-25T05:16:20;12.70;60.80
16347;DHT22;8283;48.504;13.734;2023-04-25T05:19:14;12.70;60.90
16347;DHT22;8283;48.504;13.734;2023-04-25T05:22:05;12.70;60.90
16347;DHT22;8283;48.504;13.734;2023-04-25T05:24:57;12.80;61.70
16347;DHT22;8283;48.504;13.734;2023-04-25T05:28:12;12.80;61.40
16347;DHT22;8283;48.504;13.734;2023-04-25T05:30:57;12.80;61.30
16347;DHT22;8283;48.504;13.734;2023-04-25T05:33:55;12.80;61.10
16347;DHT22;8283;48.504;13.734;2023-04-25T05:36:41;12.90;61.10
16347;DHT22;8283;48.504;13.734;2023-04-25T05:39:26;12.90;61.10
16347;DHT22;8283;48.504;13.734;2023-04-25T05:42:44;12.80;61.10
16347;DHT22;8283;48.504;13.734;2023-04-25T05:45:38;13.00;61.90
16347;DHT22;8283;48.504;13.734;2023-04-25T05:48:22;13.00;61.40
16347;DHT22;8283;48.504;13.734;2023-04-25T05:51:35;13.00;61.50
16347;DHT22;8283;48.504;13.734;2023-04-25T05:54:48;13.10;61.60
16347;DHT22;8283;48.504;13.734;2023-04-25T05:57:33;13.20;61.80
16347;DHT22;8283;48.504;13.734;2023-04-25T06:00:18;13.30;62.00
16347;DHT22;8283;48.504;13.734;2023-04-25T06:03:06;13.30;62.00
16347;DHT22;8283;48.504;13.734;2023-04-25T06:05:53;13.50;62.80
16347;DHT22;8283;48.504;13.734;2023-04-25T06:08:38;13.60;62.10
16347;DHT22;8283;48.504;13.734;2023-04-25T06:11:23;13.60;62.10
16347;DHT22;8283;48.504;13.734;2023-04-25T06:14:07;13.70;62.30
16347;DHT22;8283;48.504;13.734;2023-04-25T06:16:53;13.90;62.40
16347;DHT22;8283;48.504;13.734;2023-04-25T06:19:38;14.00;62.30
16347;DHT22;8283;48.504;13.734;2023-04-25T06:22:22;14.10;62.40
16347;DHT22;8283;48.504;13.734;2023-04-25T06:25:07;14.20;62.40
16347;DHT22;8283;48.504;13.734;2023-04-25T06:27:52;14.40;62.70
16347;DHT22;8283;48.504;13.734;2023-04-25T06:30:36;14.50;62.80
16347;DHT22;8283;48.504;13.734;2023-04-25T06:33:25;14.70;62.80
16347;DHT22;8283;48.504;13.734;2023-04-25T06:36:12;14.80;62.80
16347;DHT22;8283;48.504;13.734;2023-04-25T06:38:58;15.00;62.90
16347;DHT22;8283;48.504;13.734;2023-04-25T06:41:42;15.20;63.10
16347;DHT22;8283;48.504;13.734;2023-04-25T06:44:41;15.40;63.40
16347;DHT22;8283;48.504;13.734;2023-04-25T06:47:27;15.60;63.40
16347;DHT22;8283;48.504;13.734;2023-04-25T06:50:11;15.80;63.20
16347;DHT22;8283;48.504;13.734;2023-04-25T06:52:56;16.10;63.10
16347;DHT22;8283;48.504;13.734;2023-04-25T06:55:41;16.30;63.10
16347;DHT22;8283;48.504;13.734;2023-04-25T06:58:35;16.50;63.20
16347;DHT22;8283;48.504;13.734;2023-04-25T07:01:40;16.80;62.80
16347;DHT22;8283;48.504;13.734;2023-04-25T07:04:33;17.10;62.60
16347;DHT22;8283;48.504;13.734;2023-04-25T07:07:17;17.30;62.30
16347;DHT22;8283;48.504;13.734;2023-04-25T07:10:11;17.50;61.70
16347;DHT22;8283;48.504;13.734;2023-04-25T07:12:56;17.70;61.30
16347;DHT22;8283;48.504;13.734;2023-04-25T07:15:41;17.80;60.90
16347;DHT22;8283;48.504;13.734;2023-04-25T07:18:26;17.90;60.60
16347;DHT22;8283;48.504;13.734;2023-04-25T07:21:10;18.00;60.20
16347;DHT22;8283;48.504;13.734;2023-04-25T07:23:55;18.10;59.80
16347;DHT22;8283;48.504;13.734;2023-04-25T07:26:45;18.10;59.70
16347;DHT22;8283;48.504;13.734;2023-04-25T07:29:55;18.10;59.50
16347;DHT22;8283;48.504;13.734;2023-04-25T07:32:41;18.20;59.60
16347;DHT22;8283;48.504;13.734;2023-04-25T07:35:26;18.30;59.50
16347;DHT22;8283;48.504;13.734;2023-04-25T07:38:10;18.30;59.40
16347;DHT22;8283;48.504;13.734;2023-04-25T07:40:55;18.30;59.40
16347;DHT22;8283;48.504;13.734;2023-04-25T07:43:40;18.40;59.40
16347;DHT22;8283;48.504;13.734;2023-04-25T07:46:25;18.50;59.20
16347;DHT22;8283;48.504;13.734;2023-04-25T07:49:10;18.40;59.20
16347;DHT22;8283;48.504;13.734;2023-04-25T07:51:55;18.50;59.00
16347;DHT22;8283;48.504;13.734;2023-04-25T07:54:41;18.50;58.80
16347;DHT22;8283;48.504;13.734;2023-04-25T07:57:33;18.50;58.90
16347;DHT22;8283;48.504;13.734;2023-04-25T08:00:18;18.50;58.90
16347;DHT22;8283;48.504;13.734;2023-04-25T08:03:09;18.50;58.80
16347;DHT22;8283;48.504;13.734;2023-04-25T08:05:54;18.50;58.90
16347;DHT22;8283;48.504;13.734;2023-04-25T08:08:40;18.60;59.00
16347;DHT22;8283;48.504;13.734;2023-04-25T08:11:26;18.60;58.70
16347;DHT22;8283;48.504;13.734;2023-04-25T08:14:11;18.70;58.50
16347;DHT22;8283;48.504;13.734;2023-04-25T08:16:57;18.70;57.70
16347;DHT22;8283;48.504;13.734;2023-04-25T08:19:43;18.80;58.20
16347;DHT22;8283;48.504;13.734;2023-04-25T08:22:35;18.80;58.40
16347;DHT22;8283;48.504;13.734;2023-04-25T08:25:54;18.90;58.10
16347;DHT22;8283;48.504;13.734;2023-04-25T08:28:43;18.90;58.30
16347;DHT22;8283;48.504;13.734;2023-04-25T08:31:28;19.00;58.30
16347;DHT22;8283;48.504;13.734;2023-04-25T08:34:19;19.10;58.20
16347;DHT22;8283;48.504;13.734;2023-04-25T08:37:08;19.20;58.00
16347;DHT22;8283;48.504;13.734;2023-04-25T08:40:14;18.90;58.00
16347;DHT22;8283;48.504;13.734;2023-04-25T08:43:13;19.40;56.80
16347;DHT22;8283;48.504;13.734;2023-04-25T08:46:00;19.40;56.80
16347;DHT22;8283;48.504;13.734;2023-04-25T08:49:05;19.50;57.50
16347;DHT22;8283;48.504;13.734;2023-04-25T08:51:50;19.60;57.80
16347;DHT22;8283;48.504;13.734;2023-04-25T08:54:45;19.80;57.50
16347;DHT22;8283;48.504;13.734;2023-04-25T08:57:31;19.90;56.10
16347;DHT22;8283;48.504;13.734;2023-04-25T09:00:16;20.00;55.60
16347;DHT22;8283;48.504;13.734;2023-04-25T09:03:03;20.00;55.50
16347;DHT22;8283;48.504;13.734;2023-04-25T09:05:51;20.00;54.50
16347;DHT22;8283;48.504;13.734;2023-04-25T09:08:36;19.90;55.50
16347;DHT22;8283;48.504;13.734;2023-04-25T09:11:21;19.80;55.10
16347;DHT22;8283;48.504;13.734;2023-04-25T09:17:18;19.70;52.60
16347;DHT22;8283;48.504;13.734;2023-04-25T09:20:11;19.60;53.10
16347;DHT22;8283;48.504;13.734;2023-04-25T09:23:03;19.40;54.00
16347;DHT22;8283;48.504;13.734;2023-04-25T09:25:52;19.30;52.80
16347;DHT22;8283;48.504;13.734;2023-04-25T09:28:38;19.30;53.70
16347;DHT22;8283;48.504;13.734;2023-04-25T09:31:23;19.20;54.20
16347;DHT22;8283;48.504;13.734;2023-04-25T09:34:09;19.20;55.10
16347;DHT22;8283;48.504;13.734;2023-04-25T09:37:02;19.30;56.00
16347;DHT22;8283;48.504;13.734;2023-04-25T09:40:13;19.50;55.80
16347;DHT22;8283;48.504;13.734;2023-04-25T09:43:24;19.70;55.90
16347;DHT22;8283;48.504;13.734;2023-04-25T09:46:18;19.90;54.60
16347;DHT22;8283;48.504;13.734;2023-04-25T09:49:22;20.10;54.80
16347;DHT22;8283;48.504;13.734;2023-04-25T09:52:21;20.20;52.80
16347;DHT22;8283;48.504;13.734;2023-04-25T09:55:19;20.00;51.90
16347;DHT22;8283;48.504;13.734;2023-04-25T09:58:05;19.70;52.30
16347;DHT22;8283;48.504;13.734;2023-04-25T10:00:51;19.50;52.10
16347;DHT22;8283;48.504;13.734;2023-04-25T10:03:50;19.20;51.50
16347;DHT22;8283;48.504;13.734;2023-04-25T10:07:14;18.70;52.20
16347;DHT22;8283;48.504;13.734;2023-04-25T10:10:03;18.40;52.40
16347;DHT22;8283;48.504;13.734;2023-04-25T10:12:48;18.00;53.00
16347;DHT22;8283;48.504;13.734;2023-04-25T10:15:35;17.70;53.20
16347;DHT22;8283;48.504;13.734;2023-04-25T10:18:21;17.40;54.00
16347;DHT22;8283;48.504;13.734;2023-04-25T10:21:06;17.20;54.60
16347;DHT22;8283;48.504;13.734;2023-04-25T10:23:51;17.20;55.40
16347;DHT22;8283;48.504;13.734;2023-04-25T10:26:36;17.20;56.50
16347;DHT22;8283;48.504;13.734;2023-04-25T10:29:25;17.20;57.70
16347;DHT22;8283;48.504;13.734;2023-04-25T10:32:11;17.50;59.30
16347;DHT22;8283;48.504;13.734;2023-04-25T10:34:55;17.90;60.80
16347;DHT22;8283;48.504;13.734;2023-04-25T10:38:03;18.40;61.80
16347;DHT22;8283;48.504;13.734;2023-04-25T10:41:08;19.20;60.80
16347;DHT22;8283;48.504;13.734;2023-04-25T10:43:59;19.90;59.60
16347;DHT22;8283;48.504;13.734;2023-04-25T10:46:46;20.50;59.30
16347;DHT22;8283;48.504;13.734;2023-04-25T10:49:35;21.00;59.80
16347;DHT22;8283;48.504;13.734;2023-04-25T10:52:26;21.70;59.80
16347;DHT22;8283;48.504;13.734;2023-04-25T10:55:12;22.10;58.30
16347;DHT22;8283;48.504;13.734;2023-04-25T10:57:57;22.60;58.40
16347;DHT22;8283;48.504;13.734;2023-04-25T11:00:41;23.10;58.20
16347;DHT22;8283;48.504;13.734;2023-04-25T11:03:26;23.50;58.30
16347;DHT22;8283;48.504;13.734;2023-04-25T11:09:39;24.40;54.90
16347;DHT22;8283;48.504;13.734;2023-04-25T11:12:24;24.90;54.10
16347;DHT22;8283;48.504;13.734;2023-04-25T11:15:09;25.10;54.00
16347;DHT22;8283;48.504;13.734;2023-04-25T11:17:54;25.20;52.20
16347;DHT22;8283;48.504;13.734;2023-04-25T11:20:43;25.00;51.50
16347;DHT22;8283;48.504;13.734;2023-04-25T11:23:27;25.00;50.70
16347;DHT22;8283;48.504;13.734;2023-04-25T11:26:12;24.80;50.20
16347;DHT22;8283;48.504;13.734;2023-04-25T11:28:58;24.60;50.00
16347;DHT22;8283;48.504;13.734;2023-04-25T11:31:46;24.10;45.90
16347;DHT22;8283;48.504;13.734;2023-04-25T11:34:32;23.50;45.00
16347;DHT22;8283;48.504;13.734;2023-04-25T11:37:19;22.70;46.70
16347;DHT22;8283;48.504;13.734;2023-04-25T11:40:05;22.10;47.70
16347;DHT22;8283;48.504;13.734;2023-04-25T11:42:50;21.50;48.60
16347;DHT22;8283;48.504;13.734;2023-04-25T11:45:36;21.20;49.70
16347;DHT22;8283;48.504;13.734;2023-04-25T11:48:21;20.90;51.20
16347;DHT22;8283;48.504;13.734;2023-04-25T11:51:05;20.90;52.90
16347;DHT22;8283;48.504;13.734;2023-04-25T11:53:50;21.00;53.40
16347;DHT22;8283;48.504;13.734;2023-04-25T11:56:35;21.20;53.40
16347;DHT22;8283;48.504;13.734;2023-04-25T11:59:23;21.50;53.10
16347;DHT22;8283;48.504;13.734;2023-04-25T12:02:09;21.60;52.70
16347;DHT22;8283;48.504;13.734;2023-04-25T12:05:08;21.90;52.90
16347;DHT22;8283;48.504;13.734;2023-04-25T12:07:53;22.00;52.70
16347;DHT22;8283;48.504;13.734;2023-04-25T12:10:39;22.30;52.20
16347;DHT22;8283;48.504;13.734;2023-04-25T12:13:25;22.30;51.80
16347;DHT22;8283;48.504;13.734;2023-04-25T12:16:11;22.50;51.40
16347;DHT22;8283;48.504;13.734;2023-04-25T12:18:55;22.50;51.90
16347;DHT22;8283;48.504;13.734;2023-04-25T12:21:41;22.60;52.40
16347;DHT22;8283;48.504;13.734;2023-04-25T12:24:26;23.00;53.80
16347;DHT22;8283;48.504;13.734;2023-04-25T12:27:14;23.30;53.90
16347;DHT22;8283;48.504;13.734;2023-04-25T12:30:00;23.70;53.00
16347;DHT22;8283;48.504;13.734;2023-04-25T12:32:46;24.10;52.90
16347;DHT22;8283;48.504;13.734;2023-04-25T12:35:32;24.40;52.10
16347;DHT22;8283;48.504;13.734;2023-04-25T12:38:27;24.70;50.80
16347;DHT22;8283;48.504;13.734;2023-04-25T12:41:13;24.80;49.20
16347;DHT22;8283;48.504;13.734;2023-04-25T12:43:58;24.80;48.80
16347;DHT22;8283;48.504;13.734;2023-04-25T12:46:42;24.70;48.30
16347;DHT22;8283;48.504;13.734;2023-04-25T12:49:26;24.40;47.50
16347;DHT22;8283;48.504;13.734;2023-04-25T12:52:10;24.20;45.70
16347;DHT22;8283;48.504;13.734;2023-04-25T12:54:55;23.80;46.40
16347;DHT22;8283;48.504;13.734;2023-04-25T12:57:39;23.50;46.80
16347;DHT22;8283;48.504;13.734;2023-04-25T13:00:23;23.30;46.50
16347;DHT22;8283;48.504;13.734;2023-04-25T13:03:09;22.90;47.20
16347;DHT22;8283;48.504;13.734;2023-04-25T13:05:54;22.70;47.20
16347;DHT22;8283;48.504;13.734;2023-04-25T13:08:39;22.50;47.70
16347;DHT22;8283;48.504;13.734;2023-04-25T13:11:24;22.30;48.40
16347;DHT22;8283;48.504;13.734;2023-04-25T13:14:08;22.30;49.10
16347;DHT22;8283;48.504;13.734;2023-04-25T13:16:52;22.30;49.20
16347;DHT22;8283;48.504;13.734;2023-04-25T13:19:38;22.60;49.80
16347;DHT22;8283;48.504;13.734;2023-04-25T13:22:22;22.60;48.20
16347;DHT22;8283;48.504;13.734;2023-04-25T13:25:07;22.70;48.00
16347;DHT22;8283;48.504;13.734;2023-04-25T13:27:52;22.60;46.80
16347;DHT22;8283;48.504;13.734;2023-04-25T13:30:36;22.50;47.10
16347;DHT22;8283;48.504;13.734;2023-04-25T13:33:21;22.20;47.70
16347;DHT22;8283;48.504;13.734;2023-04-25T13:36:06;22.20;48.20
16347;DHT22;8283;48.504;13.734;2023-04-25T13:38:50;22.20;47.80
16347;DHT22;8283;48.504;13.734;2023-04-25T13:41:35;22.10;48.70
16347;DHT22;8283;48.504;13.734;2023-04-25T13:44:20;22.30;49.40
16347;DHT22;8283;48.504;13.734;2023-04-25T13:47:04;22.60;48.60
16347;DHT22;8283;48.504;13.734;2023-04-25T13:49:49;22.70;48.90
16347;DHT22;8283;48.504;13.734;2023-04-25T13:52:34;22.90;49.30
16347;DHT22;8283;48.504;13.734;2023-04-25T13:55:19;23.20;50.20
16347;DHT22;8283;48.504;13.734;2023-04-25T13:58:03;23.60;50.30
16347;DHT22;8283;48.504;13.734;2023-04-25T14:00:51;24.10;49.80
16347;DHT22;8283;48.504;13.734;2023-04-25T14:03:36;24.50;50.10
16347;DHT22;8283;48.504;13.734;2023-04-25T14:06:20;24.90;50.10
16347;DHT22;8283;48.504;13.734;2023-04-25T14:09:07;25.30;49.50
16347;DHT22;8283;48.504;13.734;2023-04-25T14:11:54;25.70;48.80
16347;DHT22;8283;48.504;13.734;2023-04-25T14:14:39;26.00;48.40
16347;DHT22;8283;48.504;13.734;2023-04-25T14:17:23;26.40;48.80
16347;DHT22;8283;48.504;13.734;2023-04-25T14:20:08;26.60;47.00
16347;DHT22;8283;48.504;13.734;2023-04-25T14:22:53;26.80;45.90
16347;DHT22;8283;48.504;13.734;2023-04-25T14:25:40;26.90;46.70
16347;DHT22;8283;48.504;13.734;2023-04-25T14:28:26;26.90;45.80
16347;DHT22;8283;48.504;13.734;2023-04-25T14:31:10;27.00;45.60
16347;DHT22;8283;48.504;13.734;2023-04-25T14:33:55;26.90;45.30
16347;DHT22;8283;48.504;13.734;2023-04-25T14:36:39;26.90;45.70
16347;DHT22;8283;48.504;13.734;2023-04-25T14:39:24;26.90;44.80
16347;DHT22;8283;48.504;13.734;2023-04-25T14:42:08;26.80;44.40
16347;DHT22;8283;48.504;13.734;2023-04-25T14:44:53;26.50;42.70
16347;DHT22;8283;48.504;13.734;2023-04-25T14:47:37;26.20;43.20
16347;DHT22;8283;48.504;13.734;2023-04-25T14:50:22;25.80;43.40
16347;DHT22;8283;48.504;13.734;2023-04-25T14:53:06;25.40;43.50
16347;DHT22;8283;48.504;13.734;2023-04-25T14:55:51;25.00;43.40
16347;DHT22;8283;48.504;13.734;2023-04-25T14:58:36;24.70;43.10
16347;DHT22;8283;48.504;13.734;2023-04-25T15:01:20;24.10;43.30
16347;DHT22;8283;48.504;13.734;2023-04-25T15:04:05;23.60;43.30
16347;DHT22;8283;48.504;13.734;2023-04-25T15:06:50;22.90;43.70
16347;DHT22;8283;48.504;13.734;2023-04-25T15:09:35;22.20;44.50
16347;DHT22;8283;48.504;13.734;2023-04-25T15:12:20;21.60;44.70
16347;DHT22;8283;48.504;13.734;2023-04-25T15:15:05;21.10;45.30
16347;DHT22;8283;48.504;13.734;2023-04-25T15:17:50;20.70;45.70
16347;DHT22;8283;48.504;13.734;2023-04-25T15:20:34;20.60;46.40
16347;DHT22;8283;48.504;13.734;2023-04-25T15:23:20;20.20;46.70
16347;DHT22;8283;48.504;13.734;2023-04-25T15:26:05;20.00;47.20
16347;DHT22;8283;48.504;13.734;2023-04-25T15:28:49;19.90;47.40
16347;DHT22;8283;48.504;13.734;2023-04-25T15:31:34;19.80;47.50
16347;DHT22;8283;48.504;13.734;2023-04-25T15:34:18;19.90;47.70
16347;DHT22;8283;48.504;13.734;2023-04-25T15:37:02;19.80;47.90
16347;DHT22;8283;48.504;13.734;2023-04-25T15:39:47;19.60;48.00
16347;DHT22;8283;48.504;13.734;2023-04-25T15:42:31;19.60;48.00
16347;DHT22;8283;48.504;13.734;2023-04-25T15:45:17;19.40;48.00
16347;DHT22;8283;48.504;13.734;2023-04-25T15:48:01;19.40;48.30
16347;DHT22;8283;48.504;13.734;2023-04-25T15:50:46;19.20;48.40
16347;DHT22;8283;48.504;13.734;2023-04-25T15:53:30;19.30;48.60
16347;DHT22;8283;48.504;13.734;2023-04-25T15:56:14;19.10;48.60
16347;DHT22;8283;48.504;13.734;2023-04-25T15:58:59;19.00;48.70
16347;DHT22;8283;48.504;13.734;2023-04-25T16:01:43;18.90;48.90
16347;DHT22;8283;48.504;13.734;2023-04-25T16:04:28;18.80;49.10
16347;DHT22;8283;48.504;13.734;2023-04-25T16:07:18;18.70;49.20
16347;DHT22;8283;48.504;13.734;2023-04-25T16:10:03;18.80;49.50
16347;DHT22;8283;48.504;13.734;2023-04-25T16:12:48;18.60;49.50
16347;DHT22;8283;48.504;13.734;2023-04-25T16:15:33;18.60;49.80
16347;DHT22;8283;48.504;13.734;2023-04-25T16:18:18;18.60;49.80
16347;DHT22;8283;48.504;13.734;2023-04-25T16:21:02;18.50;49.80
16347;DHT22;8283;48.504;13.734;2023-04-25T16:23:47;18.50;49.90
16347;DHT22;8283;48.504;13.734;2023-04-25T16:26:31;18.50;49.80
16347;DHT22;8283;48.504;13.734;2023-04-25T16:29:15;18.40;49.80
16347;DHT22;8283;48.504;13.734;2023-04-25T16:32:01;18.20;49.80
16347;DHT22;8283;48.504;13.734;2023-04-25T16:34:45;18.20;50.00
16347;DHT22;8283;48.504;13.734;2023-04-25T16:37:30;18.10;50.20
16347;DHT22;8283;48.504;13.734;2023-04-25T16:40:14;17.90;50.50
16347;DHT22;8283;48.504;13.734;2023-04-25T16:42:58;17.80;50.80
16347;DHT22;8283;48.504;13.734;2023-04-25T16:45:43;17.80;51.10
16347;DHT22;8283;48.504;13.734;2023-04-25T16:48:27;17.80;51.20
16347;DHT22;8283;48.504;13.734;2023-04-25T16:51:12;17.80;51.20
16347;DHT22;8283;48.504;13.734;2023-04-25T16:53:56;17.70;51.40
16347;DHT22;8283;48.504;13.734;2023-04-25T16:56:41;17.70;51.50
16347;DHT22;8283;48.504;13.734;2023-04-25T16:59:25;17.70;52.10
16347;DHT22;8283;48.504;13.734;2023-04-25T17:02:11;17.60;52.60
16347;DHT22;8283;48.504;13.734;2023-04-25T17:04:56;17.50;52.00
16347;DHT22;8283;48.504;13.734;2023-04-25T17:07:40;17.40;51.80
16347;DHT22;8283;48.504;13.734;2023-04-25T17:10:25;17.30;51.80
16347;DHT22;8283;48.504;13.734;2023-04-25T17:13:09;17.20;52.60
16347;DHT22;8283;48.504;13.734;2023-04-25T17:15:54;17.20;52.30
16347;DHT22;8283;48.504;13.734;2023-04-25T17:18:38;17.00;52.30
16347;DHT22;8283;48.504;13.734;2023-04-25T17:21:22;17.00;52.70
16347;DHT22;8283;48.504;13.734;2023-04-25T17:24:07;16.90;53.50
16347;DHT22;8283;48.504;13.734;2023-04-25T17:26:55;16.90;53.60
16347;DHT22;8283;48.504;13.734;2023-04-25T17:29:40;16.90;53.40
16347;DHT22;8283;48.504;13.734;2023-04-25T17:32:24;16.90;52.80
16347;DHT22;8283;48.504;13.734;2023-04-25T17:35:09;16.80;53.40
16347;DHT22;8283;48.504;13.734;2023-04-25T17:37:53;16.80;53.40
16347;DHT22;8283;48.504;13.734;2023-04-25T17:40:38;16.70;53.40
16347;DHT22;8283;48.504;13.734;2023-04-25T17:43:24;16.70;53.30
16347;DHT22;8283;48.504;13.734;2023-04-25T17:46:09;16.70;53.40